createdAt,value
2023-03-22T00:00:00.210Z,42.97
2023-03-22T00:00:22.110Z,42.85
2023-03-22T00:00:43.785Z,42.96
2023-03-22T00:01:11.302Z,42.98
2023-03-22T00:01:34.772Z,43.07
2023-03-22T00:01:56.612Z,43.00
2023-03-22T00:02:18.264Z,42.90
2023-03-22T00:02:42.059Z,42.85
2023-03-22T00:03:04.786Z,42.98
2023-03-22T00:03:27.606Z,42.94
2023-03-22T00:03:50.787Z,42.96
2023-03-22T00:04:12.467Z,42.92
2023-03-22T00:04:34.158Z,42.83
2023-03-22T00:04:57.058Z,43.06
2023-03-22T00:05:18.984Z,43.02
2023-03-22T00:05:40.650Z,42.95
2023-03-22T00:06:02.384Z,43.03
2023-03-22T00:06:26.641Z,43.22
2023-03-22T00:06:49.516Z,43.20
2023-03-22T00:07:12.286Z,43.10
2023-03-22T00:07:34.064Z,43.04
2023-03-22T00:07:57.919Z,43.19
2023-03-22T00:08:20.834Z,43.17
2023-03-22T00:08:43.481Z,43.27
2023-03-22T00:09:05.131Z,43.31
2023-03-22T00:09:27.726Z,43.32
2023-03-22T00:09:49.405Z,43.19
2023-03-22T00:10:15.132Z,43.34
2023-03-22T00:10:38.498Z,43.56
2023-03-22T00:11:01.565Z,43.37
2023-03-22T00:11:24.321Z,43.28
2023-03-22T00:11:46.224Z,43.32
2023-03-22T00:12:08.904Z,43.42
2023-03-22T00:12:30.554Z,43.23
2023-03-22T00:12:52.241Z,43.27
2023-03-22T00:13:13.854Z,43.54
2023-03-22T00:13:37.101Z,43.58
2023-03-22T00:14:01.270Z,43.38
2023-03-22T00:14:23.025Z,43.61
2023-03-22T00:14:45.417Z,43.57
2023-03-22T00:15:08.131Z,43.44
2023-03-22T00:15:30.792Z,43.55
2023-03-22T00:15:52.418Z,43.43
2023-03-22T00:16:14.847Z,43.39
2023-03-22T00:16:36.656Z,43.54
2023-03-22T00:17:01.874Z,43.42
2023-03-22T00:17:25.746Z,43.53
2023-03-22T00:17:47.770Z,43.40
2023-03-22T00:18:12.443Z,43.59
2023-03-22T00:18:35.079Z,43.52
2023-03-22T00:18:56.705Z,43.59
2023-03-22T00:19:18.465Z,43.66
2023-03-22T00:19:42.094Z,43.82
2023-03-22T00:20:08.564Z,43.72
2023-03-22T00:20:30.526Z,43.78
2023-03-22T00:20:54.177Z,43.67
2023-03-22T00:21:17.176Z,43.33
2023-03-22T00:21:39.872Z,43.37
2023-03-22T00:22:03.494Z,43.45
2023-03-22T00:22:26.622Z,43.35
2023-03-22T00:22:48.231Z,43.15
2023-03-22T00:23:10.843Z,43.50
2023-03-22T00:23:32.482Z,43.33
2023-03-22T00:23:54.261Z,43.28
2023-03-22T00:24:15.996Z,43.30
2023-03-22T00:24:39.164Z,43.37
2023-03-22T00:25:08.128Z,43.33
2023-03-22T00:25:32.620Z,43.29
2023-03-22T00:25:55.405Z,43.36
2023-03-22T00:26:17.938Z,43.47
2023-03-22T00:26:39.568Z,43.39
2023-03-22T00:27:02.681Z,43.22
2023-03-22T00:27:25.981Z,43.39
2023-03-22T00:27:48.618Z,43.33
2023-03-22T00:28:10.274Z,43.29
2023-03-22T00:28:32.305Z,43.28
2023-03-22T00:28:53.885Z,43.32
2023-03-22T00:29:16.497Z,43.09
2023-03-22T00:29:38.301Z,43.11
2023-03-22T00:29:59.931Z,43.15
2023-03-22T00:30:21.583Z,43.02
2023-03-22T00:30:51.000Z,43.28
2023-03-22T00:31:13.848Z,43.16
2023-03-22T00:31:35.736Z,43.21
2023-03-22T00:31:57.649Z,43.14
2023-03-22T00:32:19.792Z,43.20
2023-03-22T00:32:42.348Z,43.21
2023-03-22T00:33:06.168Z,43.13
2023-03-22T00:33:28.389Z,43.03
2023-03-22T00:33:50.299Z,43.09
2023-03-22T00:34:12.714Z,43.15
2023-03-22T00:34:35.565Z,43.18
2023-03-22T00:34:57.668Z,43.31
2023-03-22T00:35:22.238Z,43.16
2023-03-22T00:35:48.533Z,43.25
2023-03-22T00:36:13.096Z,43.38
2023-03-22T00:36:34.799Z,43.24
2023-03-22T00:36:56.427Z,43.39
2023-03-22T00:37:18.247Z,43.34
2023-03-22T00:37:40.570Z,43.30
2023-03-22T00:38:14.255Z,43.29
2023-03-22T00:38:42.783Z,43.14
2023-03-22T00:39:05.236Z,43.25
2023-03-22T00:39:27.911Z,43.15
2023-03-22T00:39:49.580Z,43.10
2023-03-22T00:40:13.395Z,43.22
2023-03-22T00:40:36.488Z,43.56
2023-03-22T00:41:05.346Z,43.26
2023-03-22T00:41:28.005Z,43.53
2023-03-22T00:41:49.643Z,43.58
2023-03-22T00:42:11.293Z,43.56
2023-03-22T00:42:33.071Z,43.82
2023-03-22T00:42:55.664Z,43.61
2023-03-22T00:43:17.574Z,43.79
2023-03-22T00:43:40.123Z,43.79
2023-03-22T00:44:02.732Z,43.64
2023-03-22T00:44:25.652Z,43.49
2023-03-22T00:44:47.297Z,43.46
2023-03-22T00:45:11.418Z,43.31
2023-03-22T00:45:36.221Z,43.49
2023-03-22T00:45:58.038Z,43.48
2023-03-22T00:46:21.239Z,43.41
2023-03-22T00:46:42.943Z,43.27
2023-03-22T00:47:05.821Z,43.24
2023-03-22T00:47:27.589Z,43.42
2023-03-22T00:47:49.590Z,43.44
2023-03-22T00:48:14.592Z,43.41
2023-03-22T00:48:37.408Z,43.40
2023-03-22T00:48:58.973Z,43.36
2023-03-22T00:49:21.770Z,43.48
2023-03-22T00:49:43.570Z,43.38
2023-03-22T00:50:07.605Z,43.51
2023-03-22T00:50:30.222Z,43.30
2023-03-22T00:50:51.920Z,43.27
2023-03-22T00:51:14.270Z,43.16
2023-03-22T00:51:35.938Z,43.25
2023-03-22T00:51:58.553Z,43.23
2023-03-22T00:52:21.356Z,43.22
2023-03-22T00:52:43.320Z,43.14
2023-03-22T00:53:05.809Z,43.03
2023-03-22T00:53:29.080Z,43.06
2023-03-22T00:53:54.301Z,43.05
2023-03-22T00:54:17.315Z,43.13
2023-03-22T00:54:41.918Z,43.17
2023-03-22T00:55:08.379Z,42.94
2023-03-22T00:55:30.446Z,43.12
2023-03-22T00:55:54.406Z,43.02
2023-03-22T00:56:16.263Z,42.99
2023-03-22T00:56:45.408Z,43.12
2023-03-22T00:57:08.421Z,43.03
2023-03-22T00:57:31.342Z,43.09
2023-03-22T00:57:53.217Z,43.16
2023-03-22T00:58:15.220Z,43.28
2023-03-22T00:58:37.142Z,43.33
2023-03-22T00:58:59.715Z,43.51
2023-03-22T00:59:21.996Z,43.28
2023-03-22T00:59:43.879Z,43.27
2023-03-22T01:00:16.009Z,43.48
2023-03-22T01:00:41.096Z,43.48
2023-03-22T01:01:03.008Z,43.33
2023-03-22T01:01:24.821Z,43.21
2023-03-22T01:01:48.723Z,43.43
2023-03-22T01:02:13.476Z,43.61
2023-03-22T01:02:35.205Z,43.55
2023-03-22T01:02:59.704Z,43.63
2023-03-22T01:03:22.028Z,43.73
2023-03-22T01:03:45.724Z,43.77
2023-03-22T01:04:15.287Z,43.64
2023-03-22T01:04:37.045Z,43.44
2023-03-22T01:05:00.351Z,43.62
2023-03-22T01:05:22.065Z,43.74
2023-03-22T01:05:45.463Z,43.64
2023-03-22T01:06:08.162Z,43.70
2023-03-22T01:06:31.015Z,43.64
2023-03-22T01:06:59.291Z,43.64
2023-03-22T01:07:22.116Z,43.74
2023-03-22T01:07:44.793Z,43.56
2023-03-22T01:08:08.869Z,43.66
2023-03-22T01:08:33.470Z,43.97
2023-03-22T01:08:57.281Z,43.68
2023-03-22T01:09:23.865Z,43.73
2023-03-22T01:09:46.604Z,43.81
2023-03-22T01:10:10.585Z,43.64
2023-03-22T01:10:32.919Z,43.93
2023-03-22T01:10:55.875Z,43.62
2023-03-22T01:11:18.750Z,43.74
2023-03-22T01:11:41.007Z,43.51
2023-03-22T01:12:02.830Z,43.72
2023-03-22T01:12:24.509Z,43.61
2023-03-22T01:12:46.350Z,43.43
2023-03-22T01:13:09.675Z,43.81
2023-03-22T01:13:31.420Z,43.63
2023-03-22T01:13:56.158Z,43.55
2023-03-22T01:14:19.460Z,43.48
2023-03-22T01:14:42.104Z,43.54
2023-03-22T01:15:50.522Z,43.74
2023-03-22T01:16:13.401Z,43.66
2023-03-22T01:16:35.744Z,43.54
2023-03-22T01:16:57.713Z,43.57
2023-03-22T01:17:19.670Z,43.63
2023-03-22T01:17:43.255Z,43.66
2023-03-22T01:18:05.551Z,43.59
2023-03-22T01:18:27.176Z,43.58
2023-03-22T01:18:48.818Z,43.46
2023-03-22T01:19:11.787Z,43.60
2023-03-22T01:19:33.798Z,43.60
2023-03-22T01:19:55.784Z,43.76
2023-03-22T01:20:18.185Z,43.65
2023-03-22T01:20:41.027Z,43.79
2023-03-22T01:21:03.186Z,43.70
2023-03-22T01:21:25.031Z,43.58
2023-03-22T01:21:46.828Z,43.57
2023-03-22T01:22:08.670Z,43.61
2023-03-22T01:22:31.848Z,43.50
2023-03-22T01:22:53.961Z,43.78
2023-03-22T01:23:15.889Z,43.73
2023-03-22T01:23:38.959Z,43.72
2023-03-22T01:24:00.684Z,43.72
2023-03-22T01:24:22.654Z,43.50
2023-03-22T01:24:44.433Z,43.75
2023-03-22T01:25:07.024Z,43.87
2023-03-22T01:25:31.639Z,43.77
2023-03-22T01:25:53.303Z,43.79
2023-03-22T01:26:16.383Z,43.75
2023-03-22T01:26:38.855Z,43.71
2023-03-22T01:27:00.786Z,43.80
2023-03-22T01:27:23.370Z,43.72
2023-03-22T01:27:45.401Z,43.76
2023-03-22T01:28:07.716Z,43.72
2023-03-22T01:28:30.307Z,43.72
2023-03-22T01:28:52.930Z,43.79
2023-03-22T01:29:15.587Z,43.78
2023-03-22T01:29:37.337Z,43.88
2023-03-22T01:29:58.956Z,43.69
2023-03-22T01:30:20.668Z,44.03
2023-03-22T01:30:43.569Z,43.82
2023-03-22T01:31:05.711Z,43.86
2023-03-22T01:31:27.413Z,43.92
2023-03-22T01:31:49.510Z,43.96
2023-03-22T01:32:11.288Z,44.01
2023-03-22T01:32:34.222Z,43.96
2023-03-22T01:32:55.818Z,43.97
2023-03-22T01:33:17.946Z,43.66
2023-03-22T01:33:39.783Z,43.63
2023-03-22T01:34:02.589Z,43.75
2023-03-22T01:34:24.410Z,43.70
2023-03-22T01:34:46.078Z,43.66
2023-03-22T01:35:09.986Z,43.65
2023-03-22T01:35:33.156Z,43.80
2023-03-22T01:35:56.315Z,43.74
2023-03-22T01:36:18.400Z,43.68
2023-03-22T01:36:40.123Z,43.65
2023-03-22T01:37:02.189Z,43.76
2023-03-22T01:37:27.554Z,43.83
2023-03-22T01:37:50.190Z,43.79
2023-03-22T01:38:13.239Z,43.96
2023-03-22T01:38:45.415Z,43.70
2023-03-22T01:39:09.320Z,43.92
2023-03-22T01:39:32.820Z,43.83
2023-03-22T01:39:58.813Z,43.78
2023-03-22T01:40:20.705Z,43.76
2023-03-22T01:40:42.800Z,43.75
2023-03-22T01:41:05.869Z,43.83
2023-03-22T01:41:35.026Z,43.98
2023-03-22T01:42:02.332Z,44.05
2023-03-22T01:42:25.790Z,43.88
2023-03-22T01:42:49.171Z,43.98
2023-03-22T01:43:15.896Z,44.27
2023-03-22T01:43:38.205Z,44.19
2023-03-22T01:44:13.599Z,44.09
2023-03-22T01:44:36.623Z,43.86
2023-03-22T01:45:38.129Z,43.96
2023-03-22T01:46:01.266Z,43.91
2023-03-22T01:46:25.797Z,43.67
2023-03-22T01:46:49.053Z,43.92
2023-03-22T01:47:11.658Z,43.72
2023-03-22T01:47:35.241Z,43.81
2023-03-22T01:48:02.181Z,43.69
2023-03-22T01:48:31.323Z,43.54
2023-03-22T01:48:53.243Z,43.67
2023-03-22T01:49:18.153Z,43.84
2023-03-22T01:49:40.797Z,43.51
2023-03-22T01:50:02.573Z,43.85
2023-03-22T01:50:25.913Z,43.68
2023-03-22T01:50:56.726Z,43.77
2023-03-22T01:51:25.038Z,43.75
2023-03-22T01:52:00.613Z,43.75
2023-03-22T01:52:31.393Z,43.89
2023-03-22T01:53:09.628Z,43.85
2023-03-22T01:53:36.387Z,44.08
2023-03-22T01:54:02.421Z,43.75
2023-03-22T01:54:30.092Z,44.07
2023-03-22T01:54:55.191Z,44.06
2023-03-22T01:55:28.057Z,43.97
2023-03-22T01:56:03.896Z,43.89
2023-03-22T01:56:30.188Z,44.03
2023-03-22T01:56:54.848Z,44.11
2023-03-22T01:57:26.758Z,44.03
2023-03-22T01:57:50.575Z,44.10
2023-03-22T01:58:26.074Z,44.12
2023-03-22T01:58:55.358Z,43.83
2023-03-22T01:59:26.803Z,44.25
2023-03-22T02:00:18.868Z,44.35
2023-03-22T02:01:08.373Z,44.41
2023-03-22T02:01:47.122Z,44.27
2023-03-22T02:02:19.865Z,44.44
2023-03-22T02:02:52.379Z,44.37
2023-03-22T02:03:31.216Z,44.53
2023-03-22T02:03:58.400Z,44.39
2023-03-22T02:04:23.439Z,44.32
2023-03-22T02:04:50.418Z,44.48
2023-03-22T02:05:13.143Z,44.59
2023-03-22T02:05:37.425Z,44.51
2023-03-22T02:05:59.884Z,44.63
2023-03-22T02:06:22.170Z,44.65
2023-03-22T02:06:51.629Z,44.57
2023-03-22T02:07:25.850Z,44.54
2023-03-22T02:07:48.847Z,44.44
2023-03-22T02:08:10.546Z,44.42
2023-03-22T02:08:48.238Z,44.32
2023-03-22T02:09:17.309Z,44.44
2023-03-22T02:09:41.310Z,44.39
2023-03-22T02:10:04.960Z,44.48
2023-03-22T02:10:37.552Z,44.51
2023-03-22T02:11:02.651Z,44.41
2023-03-22T02:11:30.864Z,44.27
2023-03-22T02:12:05.986Z,44.30
2023-03-22T02:12:38.373Z,44.48
2023-03-22T02:13:38.880Z,44.33
2023-03-22T02:14:39.340Z,44.27
2023-03-22T02:15:47.240Z,44.32
2023-03-22T02:16:43.649Z,44.26
2023-03-22T02:17:25.951Z,44.35
2023-03-22T02:18:11.317Z,44.35
2023-03-22T02:18:47.005Z,44.42
2023-03-22T02:19:35.713Z,44.45
2023-03-22T02:20:38.503Z,44.56
2023-03-22T02:21:28.947Z,44.69
2023-03-22T02:22:22.055Z,44.77
2023-03-22T02:23:09.113Z,44.86
2023-03-22T02:24:09.615Z,44.78
2023-03-22T02:25:07.188Z,45.01
2023-03-22T02:25:59.124Z,44.97
2023-03-22T02:26:43.925Z,45.04
2023-03-22T02:27:28.874Z,45.04
2023-03-22T02:28:15.685Z,44.82
2023-03-22T02:28:45.581Z,44.92
2023-03-22T02:29:15.179Z,44.91
2023-03-22T02:29:45.016Z,44.92
2023-03-22T02:30:30.835Z,44.99
2023-03-22T02:31:15.360Z,44.85
2023-03-22T02:32:04.125Z,45.00
2023-03-22T02:33:23.969Z,45.03
2023-03-22T02:34:27.233Z,44.82
2023-03-22T02:35:21.021Z,44.86
2023-03-22T02:35:55.883Z,45.00
2023-03-22T02:36:48.317Z,45.08
2023-03-22T02:37:47.408Z,44.99
2023-03-22T02:38:37.008Z,45.11
2023-03-22T02:39:32.513Z,45.20
2023-03-22T02:39:59.318Z,45.27
2023-03-22T02:40:28.991Z,45.29
2023-03-22T02:40:57.364Z,45.24
2023-03-22T02:41:29.904Z,45.08
2023-03-22T02:42:04.111Z,44.95
2023-03-22T02:42:40.776Z,44.90
2023-03-22T02:43:12.830Z,45.04
2023-03-22T02:43:39.193Z,45.12
2023-03-22T02:44:10.183Z,45.04
2023-03-22T02:44:41.064Z,45.08
2023-03-22T02:45:10.931Z,45.05
2023-03-22T02:45:37.957Z,44.95
2023-03-22T02:46:06.276Z,44.87
2023-03-22T02:46:32.688Z,44.83
2023-03-22T02:47:03.944Z,44.86
2023-03-22T02:47:35.444Z,44.72
2023-03-22T02:48:05.733Z,44.82
2023-03-22T02:48:33.699Z,44.71
2023-03-22T02:49:03.903Z,44.81
2023-03-22T02:49:36.130Z,44.76
2023-03-22T02:50:04.639Z,44.76
2023-03-22T02:50:31.521Z,44.83
2023-03-22T02:50:55.656Z,44.87
2023-03-22T02:51:21.321Z,45.08
2023-03-22T02:51:47.239Z,44.92
2023-03-22T02:52:17.742Z,44.87
2023-03-22T02:52:44.147Z,44.82
2023-03-22T02:53:14.684Z,44.77
2023-03-22T02:53:42.729Z,44.86
2023-03-22T02:54:09.226Z,44.67
2023-03-22T02:54:39.164Z,44.89
2023-03-22T02:55:05.950Z,44.72
2023-03-22T02:55:33.541Z,44.94
2023-03-22T02:55:58.501Z,44.91
2023-03-22T02:56:26.575Z,44.85
2023-03-22T02:56:53.319Z,44.92
2023-03-22T02:57:22.778Z,44.91
2023-03-22T02:57:51.154Z,44.78
2023-03-22T02:58:17.811Z,44.91
2023-03-22T02:58:45.679Z,44.89
2023-03-22T02:59:12.179Z,44.87
2023-03-22T02:59:38.389Z,45.14
2023-03-22T03:00:04.084Z,45.03
2023-03-22T03:00:26.904Z,45.00
2023-03-22T03:00:53.078Z,44.97
2023-03-22T03:01:19.986Z,44.90
2023-03-22T03:01:46.350Z,44.83
2023-03-22T03:02:12.045Z,44.86
2023-03-22T03:02:35.251Z,44.97
2023-03-22T03:02:59.987Z,45.11
2023-03-22T03:03:25.589Z,45.04
2023-03-22T03:03:51.235Z,45.07
2023-03-22T03:04:17.809Z,45.31
2023-03-22T03:04:44.733Z,45.09
2023-03-22T03:05:11.905Z,45.12
2023-03-22T03:05:35.223Z,44.99
2023-03-22T03:06:00.809Z,44.99
2023-03-22T03:06:26.272Z,45.08
2023-03-22T03:06:52.144Z,45.14
2023-03-22T03:07:17.717Z,44.85
2023-03-22T03:07:43.314Z,44.95
2023-03-22T03:08:09.236Z,44.93
2023-03-22T03:08:35.541Z,45.13
2023-03-22T03:08:58.272Z,45.10
2023-03-22T03:09:22.569Z,45.19
2023-03-22T03:09:46.774Z,45.18
2023-03-22T03:10:13.274Z,45.19
2023-03-22T03:10:38.396Z,45.17
2023-03-22T03:11:01.463Z,45.20
2023-03-22T03:11:24.300Z,45.18
2023-03-22T03:11:48.375Z,45.31
2023-03-22T03:12:14.805Z,45.13
2023-03-22T03:12:36.567Z,45.04
2023-03-22T03:12:58.198Z,45.03
2023-03-22T03:13:20.347Z,45.10
2023-03-22T03:13:43.014Z,45.23
2023-03-22T03:14:05.646Z,45.26
2023-03-22T03:14:29.523Z,44.99
2023-03-22T03:14:52.201Z,45.16
2023-03-22T03:15:16.861Z,45.15
2023-03-22T03:15:42.425Z,44.94
2023-03-22T03:16:07.523Z,45.05
2023-03-22T03:16:34.982Z,45.21
2023-03-22T03:17:13.187Z,44.99
2023-03-22T03:17:45.952Z,45.15
2023-03-22T03:18:18.692Z,45.33
2023-03-22T03:18:46.821Z,45.26
2023-03-22T03:19:19.827Z,45.33
2023-03-22T03:19:49.864Z,45.27
2023-03-22T03:20:34.404Z,44.98
2023-03-22T03:21:02.908Z,45.37
2023-03-22T03:21:35.553Z,45.01
2023-03-22T03:22:04.231Z,45.04
2023-03-22T03:22:41.286Z,45.05
2023-03-22T03:23:15.233Z,45.17
2023-03-22T03:23:50.232Z,45.18
2023-03-22T03:24:23.398Z,45.02
2023-03-22T03:24:51.716Z,45.13
2023-03-22T03:25:24.118Z,45.25
2023-03-22T03:25:57.805Z,44.98
2023-03-22T03:26:29.038Z,45.19
2023-03-22T03:26:59.808Z,45.10
2023-03-22T03:27:27.997Z,44.98
2023-03-22T03:27:59.270Z,45.04
2023-03-22T03:28:30.376Z,45.00
2023-03-22T03:28:58.321Z,45.03
2023-03-22T03:29:25.388Z,45.14
2023-03-22T03:29:51.164Z,45.04
2023-03-22T03:30:16.496Z,45.33
2023-03-22T03:30:46.105Z,45.37
2023-03-22T03:31:16.691Z,45.24
2023-03-22T03:31:44.916Z,45.14
2023-03-22T03:32:11.060Z,45.18
2023-03-22T03:32:36.181Z,45.25
2023-03-22T03:33:09.294Z,45.40
2023-03-22T03:33:34.335Z,45.44
2023-03-22T03:34:09.659Z,45.45
2023-03-22T03:34:36.873Z,45.34
2023-03-22T03:35:05.401Z,45.34
2023-03-22T03:35:32.497Z,45.56
2023-03-22T03:36:00.634Z,45.44
2023-03-22T03:36:25.304Z,45.42
2023-03-22T03:36:53.781Z,45.33
2023-03-22T03:37:22.684Z,45.31
2023-03-22T03:37:47.902Z,45.23
2023-03-22T03:38:14.671Z,45.37
2023-03-22T03:38:40.962Z,45.37
2023-03-22T03:39:07.763Z,45.32
2023-03-22T03:39:33.461Z,45.34
2023-03-22T03:40:02.474Z,45.27
2023-03-22T03:40:29.418Z,45.25
2023-03-22T03:40:55.972Z,45.19
2023-03-22T03:41:20.058Z,45.43
2023-03-22T03:41:46.351Z,45.45
2023-03-22T03:42:14.321Z,45.15
2023-03-22T03:42:38.330Z,45.42
2023-03-22T03:43:03.744Z,45.57
2023-03-22T03:43:25.536Z,45.76
2023-03-22T03:43:49.228Z,45.69
2023-03-22T03:44:11.547Z,45.58
2023-03-22T03:44:36.139Z,45.52
2023-03-22T03:45:00.881Z,45.77
2023-03-22T03:45:23.658Z,45.68
2023-03-22T03:45:45.740Z,45.68
2023-03-22T03:46:08.476Z,45.70
2023-03-22T03:46:30.766Z,45.62
2023-03-22T03:46:54.854Z,45.30
2023-03-22T03:47:17.204Z,45.41
2023-03-22T03:47:44.257Z,45.49
2023-03-22T03:48:09.485Z,45.58
2023-03-22T03:48:35.539Z,45.62
2023-03-22T03:48:58.708Z,45.48
2023-03-22T03:49:23.853Z,45.56
2023-03-22T03:49:47.788Z,45.39
2023-03-22T03:50:11.496Z,45.45
2023-03-22T03:50:34.520Z,45.55
2023-03-22T03:50:58.085Z,45.40
2023-03-22T03:51:19.921Z,45.31
2023-03-22T03:51:49.412Z,45.66
2023-03-22T03:52:13.265Z,45.47
2023-03-22T03:52:35.595Z,45.32
2023-03-22T03:52:58.268Z,45.41
2023-03-22T03:53:20.078Z,45.46
2023-03-22T03:53:42.792Z,45.50
2023-03-22T03:54:04.572Z,45.37
2023-03-22T03:54:26.477Z,45.52
2023-03-22T03:54:49.541Z,45.61
2023-03-22T03:55:16.342Z,45.59
2023-03-22T03:55:38.978Z,45.45
2023-03-22T03:56:01.093Z,45.65
2023-03-22T03:56:29.777Z,45.31
2023-03-22T03:56:54.705Z,45.43
2023-03-22T03:57:17.388Z,45.39
2023-03-22T03:57:39.366Z,45.48
2023-03-22T03:58:01.009Z,45.35
2023-03-22T03:58:23.111Z,45.43
2023-03-22T03:58:45.856Z,45.50
2023-03-22T03:59:09.089Z,45.40
2023-03-22T03:59:32.835Z,45.20
2023-03-22T04:00:04.558Z,45.51
2023-03-22T04:00:47.618Z,45.60
2023-03-22T04:01:28.560Z,45.73
2023-03-22T04:02:10.894Z,45.72
2023-03-22T04:02:34.007Z,45.42
2023-03-22T04:02:56.366Z,45.85
2023-03-22T04:03:34.045Z,45.58
2023-03-22T04:04:01.647Z,45.73
2023-03-22T04:04:43.616Z,45.80
2023-03-22T04:05:07.397Z,45.57
2023-03-22T04:05:29.022Z,45.82
2023-03-22T04:05:50.646Z,45.58
2023-03-22T04:06:12.583Z,45.81
2023-03-22T04:06:40.178Z,45.57
2023-03-22T04:07:07.089Z,45.98
2023-03-22T04:07:31.298Z,46.04
2023-03-22T04:07:53.190Z,45.93
2023-03-22T04:08:15.967Z,46.18
2023-03-22T04:08:37.919Z,46.16
2023-03-22T04:09:01.717Z,45.95
2023-03-22T04:09:29.901Z,45.93
2023-03-22T04:09:58.237Z,46.00
2023-03-22T04:10:26.186Z,46.41
2023-03-22T04:10:50.696Z,46.35
2023-03-22T04:11:13.283Z,46.12
2023-03-22T04:11:36.083Z,46.02
2023-03-22T04:12:00.190Z,46.02
2023-03-22T04:12:21.795Z,46.16
2023-03-22T04:13:03.431Z,46.45
2023-03-22T04:13:25.730Z,46.67
2023-03-22T04:13:51.263Z,46.64
2023-03-22T04:14:16.337Z,46.25
2023-03-22T04:14:41.799Z,46.23
2023-03-22T04:15:14.751Z,46.10
2023-03-22T04:15:39.445Z,46.14
2023-03-22T04:16:07.316Z,46.18
2023-03-22T04:16:31.938Z,46.13
2023-03-22T04:16:54.857Z,46.05
2023-03-22T04:17:19.756Z,45.87
2023-03-22T04:17:41.974Z,45.96
2023-03-22T04:18:04.848Z,46.14
2023-03-22T04:18:29.624Z,45.88
2023-03-22T04:18:53.646Z,46.06
2023-03-22T04:19:16.223Z,45.93
2023-03-22T04:19:37.824Z,45.85
2023-03-22T04:19:59.663Z,46.32
2023-03-22T04:20:22.296Z,46.26
2023-03-22T04:20:49.396Z,46.08
2023-03-22T04:21:12.302Z,46.40
2023-03-22T04:22:07.235Z,46.31
2023-03-22T04:22:29.094Z,46.35
2023-03-22T04:22:52.559Z,46.23
2023-03-22T04:23:14.921Z,46.27
2023-03-22T04:23:36.925Z,46.32
2023-03-22T04:23:59.883Z,46.17
2023-03-22T04:24:24.364Z,46.07
2023-03-22T04:24:50.092Z,46.10
2023-03-22T04:25:18.106Z,46.31
2023-03-22T04:25:50.502Z,46.10
2023-03-22T04:26:21.415Z,46.31
2023-03-22T04:27:00.095Z,46.39
2023-03-22T04:27:30.843Z,46.16
2023-03-22T04:27:56.353Z,46.20
2023-03-22T04:28:19.875Z,46.34
2023-03-22T04:28:43.438Z,46.29
2023-03-22T04:29:06.617Z,46.19
2023-03-22T04:29:32.066Z,46.28
2023-03-22T04:30:07.596Z,46.39
2023-03-22T04:30:51.873Z,46.36
2023-03-22T04:31:37.577Z,46.15
2023-03-22T04:32:19.467Z,46.17
2023-03-22T04:32:41.098Z,45.78
2023-03-22T04:33:07.264Z,45.92
2023-03-22T04:33:54.767Z,46.00
2023-03-22T04:34:38.778Z,46.08
2023-03-22T04:35:06.369Z,45.97
2023-03-22T04:35:28.263Z,45.80
2023-03-22T04:35:50.610Z,45.83
2023-03-22T04:36:17.473Z,45.74
2023-03-22T04:37:02.329Z,46.17
2023-03-22T04:37:45.644Z,46.01
2023-03-22T04:38:12.957Z,45.91
2023-03-22T04:38:35.408Z,45.80
2023-03-22T04:38:57.639Z,45.89
2023-03-22T04:39:21.145Z,45.97
2023-03-22T04:39:51.992Z,46.11
2023-03-22T04:40:17.446Z,46.07
2023-03-22T04:41:02.181Z,46.00
2023-03-22T04:41:35.939Z,45.90
2023-03-22T04:42:00.110Z,45.90
2023-03-22T04:42:23.407Z,46.08
2023-03-22T04:42:57.620Z,45.97
2023-03-22T04:43:39.276Z,46.04
2023-03-22T04:44:05.981Z,45.82
2023-03-22T04:44:32.692Z,45.87
2023-03-22T04:44:54.570Z,45.94
2023-03-22T04:45:16.411Z,45.99
2023-03-22T04:45:50.985Z,45.94
2023-03-22T04:46:17.811Z,45.90
2023-03-22T04:46:44.975Z,45.73
2023-03-22T04:47:06.835Z,45.97
2023-03-22T04:47:30.261Z,46.07
2023-03-22T04:47:56.519Z,45.77
2023-03-22T04:48:22.120Z,45.96
2023-03-22T04:48:44.755Z,45.92
2023-03-22T04:49:07.833Z,45.95
2023-03-22T04:49:34.887Z,46.04
2023-03-22T04:49:57.366Z,45.68
2023-03-22T04:50:20.883Z,45.74
2023-03-22T04:50:47.787Z,46.01
2023-03-22T04:51:11.409Z,45.90
2023-03-22T04:51:39.643Z,46.13
2023-03-22T04:52:37.451Z,46.27
2023-03-22T04:52:59.703Z,45.98
2023-03-22T04:53:27.125Z,46.09
2023-03-22T04:53:53.125Z,46.04
2023-03-22T04:54:14.850Z,46.18
2023-03-22T04:54:38.729Z,46.04
2023-03-22T04:55:01.228Z,46.00
2023-03-22T04:55:23.936Z,46.21
2023-03-22T04:55:45.592Z,45.99
2023-03-22T04:56:11.758Z,45.85
2023-03-22T04:56:33.662Z,46.17
2023-03-22T04:56:56.537Z,46.17
2023-03-22T04:57:20.000Z,46.25
2023-03-22T04:57:43.126Z,46.49
2023-03-22T04:58:05.483Z,46.42
2023-03-22T04:58:28.159Z,46.48
2023-03-22T04:58:49.800Z,46.37
2023-03-22T04:59:11.543Z,46.50
2023-03-22T04:59:33.268Z,46.21
2023-03-22T04:59:56.117Z,46.24
2023-03-22T05:00:18.687Z,46.40
2023-03-22T05:00:42.313Z,46.40
2023-03-22T05:01:05.377Z,46.35
2023-03-22T05:01:27.208Z,46.32
2023-03-22T05:01:59.999Z,46.47
2023-03-22T05:02:26.410Z,46.55
2023-03-22T05:02:49.598Z,46.28
2023-03-22T05:03:39.249Z,46.48
2023-03-22T05:04:01.062Z,46.24
2023-03-22T05:04:23.015Z,46.32
2023-03-22T05:04:50.323Z,46.48
2023-03-22T05:05:25.906Z,46.31
2023-03-22T05:05:52.659Z,46.49
2023-03-22T05:06:16.163Z,46.40
2023-03-22T05:06:48.995Z,46.15
2023-03-22T05:07:17.973Z,46.42
2023-03-22T05:07:45.928Z,46.17
2023-03-22T05:08:07.610Z,46.34
2023-03-22T05:08:30.665Z,46.33
2023-03-22T05:08:53.291Z,46.06
2023-03-22T05:09:16.879Z,46.17
2023-03-22T05:09:38.574Z,46.08
2023-03-22T05:10:00.550Z,46.09
2023-03-22T05:10:23.211Z,46.15
2023-03-22T05:10:44.882Z,46.07
2023-03-22T05:11:10.211Z,46.08
2023-03-22T05:11:31.983Z,46.20
2023-03-22T05:12:10.425Z,46.10
2023-03-22T05:12:44.913Z,46.05
2023-03-22T05:13:13.142Z,45.88
2023-03-22T05:13:39.960Z,46.04
2023-03-22T05:14:02.650Z,46.13
2023-03-22T05:14:27.248Z,46.06
2023-03-22T05:14:52.248Z,46.27
2023-03-22T05:15:19.403Z,46.45
2023-03-22T05:15:45.543Z,46.49
2023-03-22T05:16:10.155Z,46.24
2023-03-22T05:16:40.617Z,46.06
2023-03-22T05:17:03.830Z,46.47
2023-03-22T05:17:28.737Z,46.75
2023-03-22T05:17:52.425Z,46.60
2023-03-22T05:18:15.430Z,46.70
2023-03-22T05:18:42.332Z,46.53
2023-03-22T05:19:04.079Z,46.68
2023-03-22T05:19:25.867Z,46.35
2023-03-22T05:19:47.729Z,46.55
2023-03-22T05:20:12.417Z,46.29
2023-03-22T05:20:36.470Z,46.34
2023-03-22T05:21:06.828Z,46.40
2023-03-22T05:21:36.588Z,46.46
2023-03-22T05:22:02.101Z,46.51
2023-03-22T05:22:40.427Z,46.83
2023-03-22T05:23:05.048Z,46.81
2023-03-22T05:23:28.170Z,46.77
2023-03-22T05:23:51.765Z,46.55
2023-03-22T05:24:14.743Z,46.90
2023-03-22T05:24:40.113Z,46.67
2023-03-22T05:25:08.355Z,46.94
2023-03-22T05:25:30.759Z,46.93
2023-03-22T05:25:54.471Z,46.90
2023-03-22T05:26:20.417Z,46.79
2023-03-22T05:26:42.395Z,47.24
2023-03-22T05:27:05.749Z,47.05
2023-03-22T05:27:31.664Z,47.23
2023-03-22T05:28:01.919Z,47.33
2023-03-22T05:28:44.040Z,47.29
2023-03-22T05:29:12.724Z,47.24
2023-03-22T05:29:56.783Z,47.55
2023-03-22T05:30:25.229Z,47.47
2023-03-22T05:30:56.952Z,47.44
2023-03-22T05:31:41.603Z,47.18
2023-03-22T05:32:03.343Z,47.39
2023-03-22T05:32:29.213Z,47.24
2023-03-22T05:32:50.931Z,47.34
2023-03-22T05:33:13.181Z,47.20
2023-03-22T05:33:39.399Z,47.01
2023-03-22T05:34:04.503Z,47.20
2023-03-22T05:34:35.555Z,47.06
2023-03-22T05:35:06.934Z,47.07
2023-03-22T05:35:36.150Z,47.13
2023-03-22T05:35:58.205Z,47.10
2023-03-22T05:36:23.094Z,47.13
2023-03-22T05:37:04.658Z,47.24
2023-03-22T05:37:46.022Z,47.03
2023-03-22T05:38:10.267Z,47.36
2023-03-22T05:38:36.282Z,47.38
2023-03-22T05:38:59.418Z,47.01
2023-03-22T05:39:21.325Z,47.39
2023-03-22T05:39:43.849Z,47.23
2023-03-22T05:40:10.555Z,47.27
2023-03-22T05:40:36.528Z,47.29
2023-03-22T05:40:58.339Z,47.04
2023-03-22T05:41:22.053Z,47.25
2023-03-22T05:41:43.779Z,47.15
2023-03-22T05:42:06.631Z,47.28
2023-03-22T05:42:30.668Z,47.12
2023-03-22T05:42:52.790Z,47.20
2023-03-22T05:43:20.288Z,47.16
2023-03-22T05:43:44.577Z,46.90
2023-03-22T05:44:06.628Z,47.35
2023-03-22T05:44:30.808Z,47.37
2023-03-22T05:45:02.482Z,47.14